createdAt,value
2022-10-11T00:01:17.726Z,89.30
2022-10-11T00:03:44.167Z,89.05
2022-10-11T00:06:10.619Z,88.32
2022-10-11T00:08:37.154Z,87.98
2022-10-11T00:11:06.967Z,88.15
2022-10-11T00:13:34.106Z,88.52
2022-10-11T00:16:00.920Z,88.70
2022-10-11T00:18:27.521Z,88.76
2022-10-11T00:21:02.420Z,88.62
2022-10-11T00:23:29.081Z,88.76
2022-10-11T00:26:03.828Z,88.65
2022-10-11T00:28:33.598Z,89.29
2022-10-11T00:31:00.100Z,88.96
2022-10-11T00:33:26.650Z,88.51
2022-10-11T00:35:53.194Z,88.41
2022-10-11T00:38:20.057Z,88.94
2022-10-11T00:40:46.590Z,88.77
2022-10-11T00:43:25.045Z,88.26
2022-10-11T00:45:57.638Z,88.38
2022-10-11T00:48:32.562Z,88.56
2022-10-11T00:51:03.690Z,88.55
2022-10-11T00:53:33.007Z,88.73
2022-10-11T00:56:08.748Z,88.61
2022-10-11T00:58:37.037Z,88.30
2022-10-11T01:01:04.066Z,88.36
2022-10-11T01:03:32.831Z,88.50
2022-10-11T01:05:59.270Z,88.06
2022-10-11T01:08:26.899Z,88.45
2022-10-11T01:10:53.589Z,87.60
2022-10-11T01:13:34.745Z,87.82
2022-10-11T01:16:13.726Z,87.79
2022-10-11T01:18:52.166Z,87.81
2022-10-11T01:21:27.429Z,88.00
2022-10-11T01:24:15.274Z,87.96
2022-10-11T01:27:19.066Z,88.27
2022-10-11T01:29:57.698Z,88.22
2022-10-11T01:32:59.349Z,88.29
2022-10-11T01:35:45.320Z,88.24
2022-10-11T01:38:17.247Z,88.01
2022-10-11T01:41:23.616Z,88.01
2022-10-11T01:43:55.648Z,87.91
2022-10-11T01:46:23.791Z,88.10
2022-10-11T01:48:52.615Z,88.12
2022-10-11T01:51:25.730Z,87.79
2022-10-11T01:54:01.455Z,87.74
2022-10-11T01:56:52.325Z,88.30
2022-10-11T01:59:30.926Z,88.05
2022-10-11T02:02:29.393Z,88.07
2022-10-11T02:05:26.222Z,87.92
2022-10-11T02:08:05.436Z,87.96
2022-10-11T02:10:41.742Z,87.93
2022-10-11T02:13:18.500Z,87.21
2022-10-11T02:15:47.606Z,87.56
2022-10-11T02:18:20.199Z,87.27
2022-10-11T02:20:48.916Z,87.02
2022-10-11T02:23:23.315Z,86.91
2022-10-11T02:25:52.407Z,86.58
2022-10-11T02:28:23.536Z,87.03
2022-10-11T02:30:52.363Z,87.33
2022-10-11T02:33:25.044Z,87.56
2022-10-11T02:35:59.573Z,87.86
2022-10-11T02:38:30.753Z,87.39
2022-10-11T02:41:05.693Z,88.06
2022-10-11T02:43:57.611Z,87.82
2022-10-11T02:46:25.310Z,87.34
2022-10-11T02:48:52.685Z,87.27
2022-10-11T02:51:19.134Z,87.66
2022-10-11T02:53:45.690Z,87.59
2022-10-11T02:56:12.094Z,87.51
2022-10-11T02:58:38.559Z,87.43
2022-10-11T03:01:05.728Z,87.80
2022-10-11T03:03:32.146Z,87.47
2022-10-11T03:06:02.856Z,87.33
2022-10-11T03:08:29.634Z,87.99
2022-10-11T03:10:56.099Z,87.58
2022-10-11T03:13:22.783Z,88.37
2022-10-11T03:16:02.245Z,88.42
2022-10-11T03:18:29.772Z,88.31
2022-10-11T03:20:56.183Z,88.40
2022-10-11T03:23:22.634Z,88.26
2022-10-11T03:25:49.262Z,87.56
2022-10-11T03:28:15.799Z,88.15
2022-10-11T03:30:42.238Z,88.13
2022-10-11T03:33:08.644Z,88.08
2022-10-11T03:35:35.131Z,88.02
2022-10-11T03:38:01.585Z,88.24
2022-10-11T03:40:28.097Z,88.04
2022-10-11T03:42:56.368Z,88.18
2022-10-11T03:45:22.854Z,88.33
2022-10-11T03:47:49.925Z,88.89
2022-10-11T03:50:16.553Z,88.44
2022-10-11T03:52:43.063Z,88.40
2022-10-11T03:55:09.508Z,88.17
2022-10-11T03:57:35.994Z,88.33
2022-10-11T04:00:02.421Z,88.44
2022-10-11T04:02:28.904Z,88.08
2022-10-11T04:04:55.304Z,87.85
2022-10-11T04:07:21.769Z,88.11
2022-10-11T04:09:48.597Z,87.95
2022-10-11T04:12:15.021Z,87.74
2022-10-11T04:14:41.481Z,88.04
2022-10-11T04:17:07.935Z,87.46
2022-10-11T04:19:36.726Z,87.79
2022-10-11T04:22:04.523Z,87.80
2022-10-11T04:24:31.082Z,87.80
2022-10-11T04:26:57.849Z,86.93
2022-10-11T04:29:27.636Z,87.74
2022-10-11T04:31:56.518Z,88.06
2022-10-11T04:34:23.036Z,87.53
2022-10-11T04:36:50.109Z,87.81
2022-10-11T04:39:16.735Z,87.83
2022-10-11T04:41:43.263Z,87.41
2022-10-11T04:44:09.705Z,88.02
2022-10-11T04:46:36.146Z,88.08
2022-10-11T04:49:02.623Z,87.95
2022-10-11T04:51:29.313Z,87.41
2022-10-11T04:53:55.819Z,88.10
2022-10-11T04:56:22.563Z,87.75
2022-10-11T04:58:49.513Z,88.13
2022-10-11T05:01:16.035Z,87.33
2022-10-11T05:03:43.344Z,87.68
2022-10-11T05:06:10.741Z,87.24
2022-10-11T05:08:37.670Z,87.50
2022-10-11T05:11:06.959Z,87.98
2022-10-11T05:13:34.474Z,88.10
2022-10-11T05:16:01.989Z,88.17
2022-10-11T05:18:30.413Z,88.41
2022-10-11T05:21:09.064Z,87.83
2022-10-11T05:23:36.669Z,87.92
2022-10-11T05:26:04.407Z,87.39
2022-10-11T05:28:31.251Z,87.40
2022-10-11T05:30:58.149Z,87.74
2022-10-11T05:33:25.308Z,87.68
2022-10-11T05:35:51.989Z,87.79
2022-10-11T05:38:18.597Z,87.65
2022-10-11T05:40:45.293Z,87.84
2022-10-11T05:43:11.845Z,88.06
2022-10-11T05:45:40.005Z,87.24
2022-10-11T05:48:06.489Z,87.67
2022-10-11T05:50:33.405Z,88.26
2022-10-11T05:52:59.958Z,87.44
2022-10-11T05:55:26.387Z,87.92
2022-10-11T05:57:54.608Z,87.18
2022-10-11T06:00:22.336Z,87.23
2022-10-11T06:02:48.793Z,87.35
2022-10-11T06:05:15.465Z,87.62
2022-10-11T06:07:42.122Z,87.40
2022-10-11T06:10:09.491Z,87.06
2022-10-11T06:12:36.137Z,87.94
2022-10-11T06:15:03.930Z,87.27
2022-10-11T06:17:30.486Z,87.95
2022-10-11T06:19:56.910Z,88.15
2022-10-11T06:22:23.549Z,88.04
2022-10-11T06:24:50.063Z,88.28
2022-10-11T06:27:16.596Z,88.50
2022-10-11T06:29:43.046Z,88.23
2022-10-11T06:32:09.473Z,88.41
2022-10-11T06:34:36.065Z,88.36
2022-10-11T06:37:02.607Z,88.22
2022-10-11T06:39:29.164Z,88.76
2022-10-11T06:41:55.663Z,88.37
2022-10-11T06:44:22.133Z,88.50
2022-10-11T06:46:48.585Z,88.29
2022-10-11T06:49:18.201Z,88.56
2022-10-11T06:51:47.246Z,88.19
2022-10-11T06:54:13.814Z,87.67
2022-10-11T06:56:40.878Z,87.62
2022-10-11T06:59:07.587Z,87.67
2022-10-11T07:01:34.165Z,87.88
2022-10-11T07:04:01.607Z,88.38
2022-10-11T07:06:30.710Z,88.58
2022-10-11T07:09:00.044Z,88.92
2022-10-11T07:11:28.054Z,88.68
2022-10-11T07:14:00.313Z,88.95
2022-10-11T07:16:27.560Z,88.70
2022-10-11T07:19:00.238Z,88.48
2022-10-11T07:21:28.645Z,88.59
2022-10-11T07:23:55.121Z,88.72
2022-10-11T07:26:21.563Z,89.06
2022-10-11T07:28:48.064Z,88.86
2022-10-11T07:31:20.607Z,88.93
2022-10-11T07:33:47.425Z,88.70
2022-10-11T07:36:15.615Z,89.31
2022-10-11T07:38:43.980Z,89.26
2022-10-11T07:41:10.678Z,89.57
2022-10-11T07:43:38.139Z,89.49
2022-10-11T07:46:05.568Z,89.58
2022-10-11T07:48:34.297Z,89.72
2022-10-11T07:51:16.012Z,89.86
2022-10-11T07:53:48.490Z,90.07
2022-10-11T07:56:18.894Z,89.57
2022-10-11T07:58:53.844Z,89.64
2022-10-11T08:01:20.698Z,89.40
2022-10-11T08:03:48.001Z,89.40
2022-10-11T08:06:17.350Z,89.56
2022-10-11T08:08:44.024Z,89.42
2022-10-11T08:11:10.978Z,89.33
2022-10-11T08:13:37.601Z,88.84
2022-10-11T08:16:11.152Z,88.53
2022-10-11T08:18:37.633Z,88.84
2022-10-11T08:21:09.108Z,89.98
2022-10-11T08:23:35.744Z,90.05
2022-10-11T08:26:02.877Z,90.03
2022-10-11T08:28:29.715Z,89.89
2022-10-11T08:30:56.732Z,89.18
2022-10-11T08:33:24.594Z,89.16
2022-10-11T08:35:52.296Z,89.39
2022-10-11T08:38:19.655Z,88.80
2022-10-11T08:40:52.082Z,88.23
2022-10-11T08:43:44.571Z,88.13
2022-10-11T08:46:13.181Z,87.94
2022-10-11T08:48:45.665Z,88.01
2022-10-11T08:51:30.668Z,87.36
2022-10-11T08:54:04.674Z,88.07
2022-10-11T08:56:37.707Z,88.66
2022-10-11T08:59:32.877Z,88.11
2022-10-11T09:02:49.563Z,88.66
2022-10-11T09:05:23.736Z,88.58
2022-10-11T09:08:13.540Z,88.57
2022-10-11T09:11:04.816Z,88.26
2022-10-11T09:13:58.788Z,87.91
2022-10-11T09:16:36.730Z,87.18
2022-10-11T09:19:06.034Z,87.09
2022-10-11T09:21:39.837Z,87.11
2022-10-11T09:24:45.621Z,87.67
2022-10-11T09:27:50.338Z,87.40
2022-10-11T09:30:19.803Z,86.42
2022-10-11T09:33:04.518Z,86.72
2022-10-11T09:35:38.705Z,86.88
2022-10-11T09:38:13.357Z,86.06
2022-10-11T09:41:11.676Z,85.48
2022-10-11T09:43:38.472Z,85.18
2022-10-11T09:46:20.565Z,84.65
2022-10-11T09:48:47.356Z,84.04
2022-10-11T09:51:19.861Z,84.55
2022-10-11T09:53:49.333Z,84.40
2022-10-11T09:56:15.912Z,83.82
2022-10-11T09:58:42.453Z,83.67
2022-10-11T10:01:11.766Z,82.55
2022-10-11T10:03:43.155Z,82.05
2022-10-11T10:06:15.699Z,81.11
2022-10-11T10:08:43.237Z,81.15
2022-10-11T10:11:11.196Z,81.15
2022-10-11T10:13:51.814Z,81.34
2022-10-11T10:16:30.769Z,79.07
2022-10-11T10:19:19.424Z,78.20
2022-10-11T10:21:49.315Z,78.30
2022-10-11T10:24:28.798Z,78.83
2022-10-11T10:27:21.498Z,78.53
2022-10-11T10:30:08.854Z,76.35
2022-10-11T10:32:55.639Z,76.90
2022-10-11T10:35:55.362Z,76.74
2022-10-11T10:38:36.410Z,74.46
2022-10-11T10:41:14.589Z,75.41
2022-10-11T10:43:43.437Z,74.17
2022-10-11T10:46:16.672Z,73.69
2022-10-11T10:51:53.932Z,73.52
2022-10-11T10:54:23.248Z,72.88
2022-10-11T10:56:57.764Z,71.16
2022-10-11T10:59:49.341Z,71.94
2022-10-11T11:02:40.192Z,72.10
2022-10-11T11:05:22.201Z,72.74
2022-10-11T11:08:12.763Z,71.71
2022-10-11T11:10:49.082Z,70.87
2022-10-11T11:13:23.081Z,70.15
2022-10-11T11:15:55.666Z,72.03
2022-10-11T11:18:59.001Z,69.80
2022-10-11T11:22:06.188Z,67.42
2022-10-11T11:24:46.790Z,69.34
2022-10-11T11:27:25.344Z,70.14
2022-10-11T11:29:56.245Z,69.31
2022-10-11T11:32:45.584Z,67.66
2022-10-11T11:35:27.234Z,67.33
2022-10-11T11:38:06.085Z,68.33
2022-10-11T11:40:49.098Z,69.21
2022-10-11T11:43:23.560Z,67.64
2022-10-11T11:45:55.807Z,64.65
2022-10-11T11:48:25.078Z,65.07
2022-10-11T11:51:02.766Z,64.43
2022-10-11T11:53:50.970Z,65.42
2022-10-11T11:56:27.693Z,64.39
2022-10-11T11:59:18.068Z,65.79
2022-10-11T12:01:59.737Z,66.04
2022-10-11T12:04:36.129Z,64.33
2022-10-11T12:07:17.669Z,64.30
2022-10-11T12:09:50.570Z,64.91
2022-10-11T12:12:26.326Z,62.73
2022-10-11T12:15:22.280Z,64.63
2022-10-11T12:17:54.811Z,63.34
2022-10-11T12:20:25.679Z,62.73
2022-10-11T12:22:55.009Z,62.48
2022-10-11T12:25:28.481Z,62.94
2022-10-11T12:27:57.519Z,62.12
2022-10-11T12:30:42.662Z,62.86
2022-10-11T12:33:46.890Z,64.21
2022-10-11T12:36:34.043Z,64.99
2022-10-11T12:39:18.577Z,63.93
2022-10-11T12:42:17.733Z,62.57
2022-10-11T12:45:13.337Z,62.62
2022-10-11T12:48:01.474Z,61.43
2022-10-11T12:50:51.808Z,61.81
2022-10-11T12:53:43.081Z,61.54
2022-10-11T12:56:18.391Z,60.27
2022-10-11T12:58:47.866Z,61.32
2022-10-11T13:01:22.031Z,59.69
2022-10-11T13:04:00.218Z,60.29
2022-10-11T13:06:28.855Z,60.27
2022-10-11T13:09:10.053Z,63.10
2022-10-11T13:11:44.849Z,61.01
2022-10-11T13:14:17.495Z,61.67
2022-10-11T13:17:08.253Z,61.84
2022-10-11T13:19:37.838Z,60.94
2022-10-11T13:22:15.260Z,60.73
2022-10-11T13:24:42.611Z,61.19
2022-10-11T13:27:18.709Z,60.87
2022-10-11T13:29:46.440Z,62.24
2022-10-11T13:32:16.758Z,61.43
2022-10-11T13:34:47.398Z,61.33
2022-10-11T13:37:20.469Z,61.92
2022-10-11T13:39:49.041Z,61.88
2022-10-11T13:42:17.734Z,62.76
2022-10-11T13:44:45.962Z,60.60
2022-10-11T13:47:18.305Z,60.21
2022-10-11T13:49:47.606Z,58.21
2022-10-11T13:52:23.742Z,56.99
2022-10-11T13:54:53.234Z,54.09
2022-10-11T13:57:22.724Z,53.17
2022-10-11T13:59:49.482Z,53.33
2022-10-11T14:02:22.384Z,54.59
2022-10-11T14:04:49.839Z,54.64
2022-10-11T14:07:29.822Z,55.34
2022-10-11T14:09:56.552Z,55.99
2022-10-11T14:12:25.774Z,56.24
2022-10-11T14:14:52.521Z,57.79
2022-10-11T14:17:40.444Z,57.52
2022-10-11T14:20:40.122Z,57.19
2022-10-11T14:23:06.812Z,56.70
2022-10-11T14:25:33.898Z,56.67
2022-10-11T14:28:00.588Z,56.02
2022-10-11T14:30:28.170Z,54.52
2022-10-11T14:32:57.650Z,54.19
2022-10-11T14:35:27.158Z,53.47
2022-10-11T14:37:53.916Z,54.73
2022-10-11T14:40:24.133Z,55.65
2022-10-11T14:42:50.891Z,54.23
2022-10-11T14:45:18.545Z,54.35
2022-10-11T14:47:45.294Z,55.09
2022-10-11T14:50:44.701Z,56.65
2022-10-11T14:53:11.895Z,55.32
2022-10-11T14:55:41.052Z,54.97
2022-10-11T14:58:09.416Z,56.85
2022-10-11T15:00:36.315Z,55.83
2022-10-11T15:03:03.826Z,56.63
2022-10-11T15:05:34.313Z,56.85
2022-10-11T15:08:02.354Z,57.48
2022-10-11T15:10:35.727Z,57.29
2022-10-11T15:13:02.719Z,58.24
2022-10-11T15:15:32.650Z,56.91
2022-10-11T15:18:00.350Z,57.62
2022-10-11T15:20:31.444Z,58.30
2022-10-11T15:22:59.366Z,58.72
2022-10-11T15:25:27.221Z,58.83
2022-10-11T15:27:53.790Z,58.93
2022-10-11T15:30:46.677Z,59.34
2022-10-11T15:33:13.145Z,59.67
2022-10-11T15:35:39.652Z,59.46
2022-10-11T15:38:09.029Z,61.05
2022-10-11T15:40:36.937Z,60.10
2022-10-11T15:43:04.257Z,60.80
2022-10-11T15:45:31.158Z,61.29
2022-10-11T15:47:58.363Z,61.28
2022-10-11T15:50:41.425Z,62.09
2022-10-11T15:53:16.847Z,62.33
2022-10-11T15:55:45.948Z,61.84
2022-10-11T15:58:15.363Z,61.41
2022-10-11T16:00:43.458Z,62.32
2022-10-11T16:03:12.455Z,62.10
2022-10-11T16:05:39.455Z,62.44
2022-10-11T16:08:06.215Z,63.60
2022-10-11T16:10:32.848Z,64.22
2022-10-11T16:12:59.338Z,63.05
2022-10-11T16:15:26.328Z,63.58
2022-10-11T16:17:52.786Z,61.66
2022-10-11T16:20:22.319Z,60.68
2022-10-11T16:22:50.694Z,61.55
2022-10-11T16:25:17.797Z,62.49
2022-10-11T16:27:44.782Z,63.47
2022-10-11T16:30:12.822Z,64.45
2022-10-11T16:32:40.017Z,66.00
2022-10-11T16:35:07.814Z,66.40
2022-10-11T16:37:35.066Z,66.41
2022-10-11T16:40:01.554Z,67.08
2022-10-11T16:42:28.207Z,67.77
2022-10-11T16:44:54.606Z,68.45
2022-10-11T16:47:21.053Z,69.49
2022-10-11T16:49:47.451Z,70.62
2022-10-11T16:52:15.446Z,71.60
2022-10-11T16:54:46.568Z,72.12
2022-10-11T16:57:15.666Z,72.88
2022-10-11T16:59:42.520Z,73.19
2022-10-11T17:02:16.061Z,72.76
2022-10-11T17:04:42.549Z,72.92
2022-10-11T17:07:14.892Z,73.94
2022-10-11T17:09:44.307Z,74.94
2022-10-11T17:12:13.212Z,75.46
2022-10-11T17:14:41.276Z,75.76
2022-10-11T17:17:09.487Z,75.88
2022-10-11T17:19:39.217Z,75.70
2022-10-11T17:22:10.107Z,75.74
2022-10-11T17:24:36.680Z,75.75
2022-10-11T17:27:03.939Z,75.84
2022-10-11T17:29:30.446Z,76.62
2022-10-11T17:31:56.978Z,77.42
2022-10-11T17:34:23.872Z,77.73
2022-10-11T17:36:50.425Z,77.95
2022-10-11T17:39:19.405Z,78.81
2022-10-11T17:41:46.139Z,79.10
2022-10-11T17:44:13.886Z,79.35
2022-10-11T17:46:40.322Z,79.66
2022-10-11T17:49:08.506Z,80.02
2022-10-11T17:51:36.521Z,79.66
2022-10-11T17:54:03.964Z,78.96
2022-10-11T17:56:36.600Z,79.46
2022-10-11T17:59:04.287Z,79.83
2022-10-11T18:01:30.823Z,80.37
2022-10-11T18:04:03.106Z,80.91
2022-10-11T18:06:33.058Z,80.78
2022-10-11T18:09:01.026Z,81.08
2022-10-11T18:11:27.558Z,81.09
2022-10-11T18:13:54.158Z,81.16
2022-10-11T18:16:24.479Z,81.43
2022-10-11T18:18:51.004Z,81.31
2022-10-11T18:21:18.731Z,81.75
2022-10-11T18:23:45.743Z,81.98
2022-10-11T18:26:18.195Z,82.35
2022-10-11T18:28:45.386Z,82.47
2022-10-11T18:31:18.237Z,82.02
2022-10-11T18:33:46.015Z,81.57
2022-10-11T18:36:15.188Z,81.73
2022-10-11T18:38:46.162Z,81.81
2022-10-11T18:41:15.102Z,81.94
2022-10-11T18:43:41.821Z,82.17
2022-10-11T18:46:11.660Z,82.10
2022-10-11T18:48:42.753Z,82.47
2022-10-11T18:51:19.985Z,82.46
2022-10-11T18:53:47.260Z,82.36
2022-10-11T18:56:16.929Z,82.08
2022-10-11T18:58:44.870Z,82.16
2022-10-11T19:01:16.335Z,81.64
2022-10-11T19:03:44.321Z,81.37
2022-10-11T19:06:17.743Z,81.61
2022-10-11T19:08:46.019Z,81.48
2022-10-11T19:11:14.035Z,81.71
2022-10-11T19:13:40.599Z,82.50
2022-10-11T19:16:10.207Z,83.19
2022-10-11T19:18:41.730Z,83.11
2022-10-11T19:21:12.605Z,82.81
2022-10-11T19:23:41.855Z,83.08
2022-10-11T19:26:13.511Z,83.16
2022-10-11T19:28:40.120Z,83.23
2022-10-11T19:31:09.921Z,83.15
2022-10-11T19:33:36.614Z,82.64
2022-10-11T19:36:05.168Z,82.87
2022-10-11T19:38:33.820Z,83.21
2022-10-11T19:41:01.638Z,83.35
2022-10-11T19:43:28.415Z,82.85
2022-10-11T19:46:01.688Z,82.87
2022-10-11T19:48:28.465Z,82.60
2022-10-11T19:51:06.673Z,82.36
2022-10-11T19:53:33.210Z,82.83
2022-10-11T19:56:02.133Z,83.07
2022-10-11T19:58:29.177Z,83.12
2022-10-11T20:01:19.667Z,82.67
2022-10-11T20:04:22.684Z,82.50
2022-10-11T20:06:57.425Z,82.43
2022-10-11T20:09:29.602Z,82.59
2022-10-11T20:11:56.836Z,82.72
2022-10-11T20:14:23.346Z,82.79
2022-10-11T20:16:50.536Z,82.40
2022-10-11T20:19:17.207Z,82.06
2022-10-11T20:21:43.955Z,82.52
2022-10-11T20:24:10.429Z,82.49
2022-10-11T20:26:37.021Z,82.67
2022-10-11T20:29:03.501Z,82.61
2022-10-11T20:31:33.092Z,82.69
2022-10-11T20:34:02.396Z,82.98
2022-10-11T20:36:30.172Z,82.96
2022-10-11T20:38:58.231Z,83.32
2022-10-11T20:41:34.234Z,83.63
2022-10-11T20:44:02.195Z,83.78
2022-10-11T20:46:31.567Z,83.74
2022-10-11T20:49:03.417Z,83.79
2022-10-11T20:51:31.665Z,83.98
2022-10-11T20:53:58.913Z,83.58
2022-10-11T20:56:26.680Z,84.02
2022-10-11T20:58:55.217Z,83.73
2022-10-11T21:01:28.062Z,84.45
2022-10-11T21:03:57.490Z,84.06
2022-10-11T21:06:24.051Z,83.92
2022-10-11T21:08:50.499Z,83.50
2022-10-11T21:11:17.020Z,83.50
2022-10-11T21:13:43.543Z,83.57
2022-10-11T21:16:14.638Z,83.36
2022-10-11T21:18:41.665Z,83.61
2022-10-11T21:21:13.827Z,83.32
2022-10-11T21:23:41.011Z,83.32
2022-10-11T21:26:10.682Z,83.04
2022-10-11T21:28:37.911Z,82.77
2022-10-11T21:31:13.042Z,83.46
2022-10-11T21:33:40.420Z,83.41
2022-10-11T21:36:12.191Z,84.05
2022-10-11T21:38:39.146Z,83.90
2022-10-11T21:41:11.509Z,83.94
2022-10-11T21:43:38.432Z,84.01
2022-10-11T21:46:10.931Z,83.79
2022-10-11T21:48:37.445Z,83.21
2022-10-11T21:51:04.498Z,83.39
2022-10-11T21:53:31.135Z,83.36
2022-10-11T21:55:58.687Z,83.66
2022-10-11T21:58:25.600Z,83.20
2022-10-11T22:00:52.568Z,83.33
2022-10-11T22:03:19.470Z,83.24
2022-10-11T22:05:47.288Z,83.23
2022-10-11T22:08:14.395Z,83.32
2022-10-11T22:10:45.699Z,83.96
2022-10-11T22:13:12.240Z,83.61
2022-10-11T22:15:39.431Z,83.45
2022-10-11T22:18:06.198Z,83.75
2022-10-11T22:20:33.399Z,83.40
2022-10-11T22:23:00.049Z,83.66
2022-10-11T22:25:26.626Z,83.50
2022-10-11T22:27:53.045Z,83.70
2022-10-11T22:30:19.513Z,83.69
2022-10-11T22:32:45.946Z,83.28
2022-10-11T22:35:12.378Z,83.39
2022-10-11T22:37:38.771Z,83.44
2022-10-11T22:40:05.911Z,83.78
2022-10-11T22:42:32.311Z,83.88
2022-10-11T22:44:58.733Z,83.72
2022-10-11T22:47:25.615Z,84.26
2022-10-11T22:49:52.037Z,84.47
2022-10-11T22:52:18.449Z,84.69
2022-10-11T22:54:44.865Z,84.50
2022-10-11T22:57:11.457Z,84.98
2022-10-11T22:59:37.898Z,84.75
2022-10-11T23:02:04.301Z,85.08
2022-10-11T23:04:30.749Z,84.76
2022-10-11T23:07:01.198Z,84.89
2022-10-11T23:09:31.645Z,84.93
2022-10-11T23:11:59.073Z,84.89
2022-10-11T23:14:25.602Z,84.12
2022-10-11T23:16:52.362Z,84.36
2022-10-11T23:19:18.937Z,84.73
2022-10-11T23:21:45.737Z,84.90
2022-10-11T23:24:12.249Z,85.21
2022-10-11T23:26:38.710Z,85.34
2022-10-11T23:29:05.176Z,85.29
2022-10-11T23:31:31.605Z,85.29
2022-10-11T23:33:58.028Z,85.17
2022-10-11T23:36:25.754Z,85.11
2022-10-11T23:38:54.266Z,85.28
2022-10-11T23:41:21.813Z,84.46
2022-10-11T23:43:48.221Z,84.43
2022-10-11T23:46:15.037Z,84.17
2022-10-11T23:48:41.645Z,84.34
2022-10-11T23:51:08.223Z,84.20
2022-10-11T23:53:35.744Z,84.25
2022-10-11T23:56:02.773Z,84.56
2022-10-11T23:58:29.211Z,84.34
